Time;durP1;ratioP1;P1;durP2;ratioP2;P2;SDS_P1;SDS_P2;PMS_P1;PMS_P2;Temp;Humidity;BMP_temperature;BMP_pressure;BME280_temperature;BME280_humidity;BME280_pressure;Samples;Min_cycle;Max_cycle;Signal;HPM_P1;HPM_P2
2021/10/02 00:44:55;;;;;;;19.08;12.95;;;;;;;;;;4993189;28;20057;-59
2021/10/02 00:47:22;;;;;;;21.38;13.90;;;;;;;;;;4992849;28;20034;-60
2021/10/02 00:49:49;;;;;;;22.73;15.27;;;;;;;;;;4992393;28;20018;-60
2021/10/02 00:52:16;;;;;;;22.42;15.88;;;;;;;;;;5060118;28;20027;-54
2021/10/02 00:54:43;;;;;;;23.48;15.65;;;;;;;;;;4992649;28;20069;-59
2021/10/02 00:57:09;;;;;;;23.45;15.70;;;;;;;;;;4992821;28;20023;-60
2021/10/02 00:59:36;;;;;;;21.45;14.73;;;;;;;;;;4992645;28;20079;-55
2021/10/02 01:02:11;;;;;;;24.42;15.65;;;;;;;;;;4992542;28;20124;-59
2021/10/02 01:04:37;;;;;;;23.13;15.32;;;;;;;;;;4992276;28;20034;-58
2021/10/02 01:07:08;;;;;;;22.83;16.85;;;;;;;;;;5059761;28;20533;-54
2021/10/02 01:10:05;;;;;;;22.45;15.27;;;;;;;;;;4992122;28;20141;-59
2021/10/02 01:12:50;;;;;;;22.48;16.17;;;;;;;;;;5058961;28;20043;-58
2021/10/02 01:15:24;;;;;;;22.15;15.13;;;;;;;;;;4992261;28;20018;-59
2021/10/02 01:17:53;;;;;;;24.55;14.68;;;;;;;;;;5059731;28;20499;-56
2021/10/02 01:20:35;;;;;;;22.75;14.48;;;;;;;;;;4992255;28;20023;-57
2021/10/02 01:23:19;;;;;;;22.55;14.73;;;;;;;;;;4991979;28;20037;-59
2021/10/02 01:26:03;;;;;;;25.10;15.18;;;;;;;;;;5060004;28;20038;-59
2021/10/02 01:28:31;;;;;;;22.92;15.57;;;;;;;;;;4991878;28;20512;-60
2021/10/02 01:31:11;;;;;;;24.23;21.67;;;;;;;;;;5059681;28;20053;-60
2021/10/02 01:34:07;;;;;;;30.20;22.10;;;;;;;;;;5059142;28;20033;-61
2021/10/02 01:36:51;;;;;;;25.40;20.83;;;;;;;;;;4991876;28;20038;-62
2021/10/02 01:47:38;;;;;;;25.10;20.92;;;;;;;;;;4992270;28;20045;-61
2021/10/02 01:50:04;;;;;;;26.15;21.80;;;;;;;;;;5059155;28;20033;-62
2021/10/02 01:52:38;;;;;;;26.90;22.10;;;;;;;;;;5058994;28;20031;-62
2021/10/02 01:55:05;;;;;;;27.33;21.63;;;;;;;;;;5058936;28;20091;-60
2021/10/02 01:57:34;;;;;;;26.35;20.58;;;;;;;;;;5059023;28;20486;-53
2021/10/02 02:00:08;;;;;;;25.90;21.58;;;;;;;;;;4991382;28;20027;-60
2021/10/02 02:02:35;;;;;;;25.60;21.83;;;;;;;;;;4991463;28;20121;-60
2021/10/02 02:05:03;;;;;;;25.77;22.27;;;;;;;;;;5058975;28;20034;-60
2021/10/02 02:07:32;;;;;;;24.85;21.83;;;;;;;;;;4991588;28;20055;-61
2021/10/02 02:09:59;;;;;;;26.05;21.10;;;;;;;;;;5058647;28;20072;-59
2021/10/02 02:12:32;;;;;;;24.23;21.38;;;;;;;;;;5058706;28;20101;-62
2021/10/02 02:15:01;;;;;;;28.75;25.08;;;;;;;;;;4991581;28;20029;-60
2021/10/02 02:17:27;;;;;;;26.83;23.45;;;;;;;;;;5058325;28;20026;-60
2021/10/02 02:19:55;;;;;;;27.65;24.73;;;;;;;;;;4991111;28;20026;-61
2021/10/02 02:22:22;;;;;;;26.70;23.80;;;;;;;;;;4991080;28;20027;-60
2021/10/02 02:24:48;;;;;;;26.65;23.75;;;;;;;;;;5058442;28;20038;-60
2021/10/02 02:27:14;;;;;;;27.00;22.45;;;;;;;;;;4991243;28;20071;-60
2021/10/02 02:29:40;;;;;;;28.95;24.10;;;;;;;;;;4990889;28;20425;-59
2021/10/02 02:32:06;;;;;;;27.05;23.45;;;;;;;;;;4991016;28;20105;-61
2021/10/02 02:34:32;;;;;;;33.22;24.48;;;;;;;;;;5058463;28;20469;-59
2021/10/02 02:36:59;;;;;;;29.58;25.23;;;;;;;;;;5058197;28;20030;-59
2021/10/02 02:39:25;;;;;;;29.52;24.83;;;;;;;;;;5058286;28;20023;-60
2021/10/02 02:41:51;;;;;;;31.10;25.98;;;;;;;;;;5058323;28;20045;-59
2021/10/02 02:44:17;;;;;;;29.83;24.65;;;;;;;;;;5058347;28;20390;-60
2021/10/02 02:46:44;;;;;;;32.72;26.67;;;;;;;;;;5057674;28;20046;-58
2021/10/02 02:49:29;;;;;;;31.20;27.15;;;;;;;;;;5058085;28;20026;-60
2021/10/02 02:52:10;;;;;;;32.22;26.98;;;;;;;;;;5057942;28;20030;-60
2021/10/02 02:55:03;;;;;;;30.40;26.15;;;;;;;;;;5058007;28;20117;-59
2021/10/02 02:57:31;;;;;;;33.72;27.35;;;;;;;;;;4995219;28;20031;-58
2021/10/02 03:00:03;;;;;;;37.80;27.58;;;;;;;;;;4990593;28;20437;-61
2021/10/02 03:02:30;;;;;;;33.42;26.35;;;;;;;;;;4990650;28;20034;-55
2021/10/02 03:04:57;;;;;;;34.28;28.45;;;;;;;;;;5057704;28;20051;-59
2021/10/02 03:07:25;;;;;;;31.07;27.30;;;;;;;;;;4990662;28;20117;-60
2021/10/02 03:09:52;;;;;;;32.87;27.47;;;;;;;;;;4990425;28;20167;-60
2021/10/02 03:12:19;;;;;;;32.70;28.65;;;;;;;;;;5053985;28;20041;-60
2021/10/02 03:14:46;;;;;;;33.17;28.10;;;;;;;;;;5037787;28;20027;-59
2021/10/02 03:17:13;;;;;;;32.85;27.77;;;;;;;;;;4971048;28;20042;-60
2021/10/02 03:19:39;;;;;;;32.15;28.17;;;;;;;;;;5037556;28;20576;-60
2021/10/02 03:22:07;;;;;;;33.03;28.73;;;;;;;;;;5037470;28;20033;-59
2021/10/02 03:24:34;;;;;;;34.13;28.10;;;;;;;;;;5037333;28;20043;-59
2021/10/02 03:27:03;;;;;;;34.78;28.45;;;;;;;;;;5037509;28;20676;-58
2021/10/02 03:29:29;;;;;;;33.88;27.65;;;;;;;;;;4970678;28;20088;-60
2021/10/02 03:31:55;;;;;;;32.75;28.77;;;;;;;;;;4970862;28;20429;-59
2021/10/02 03:34:21;;;;;;;34.63;30.15;;;;;;;;;;5037272;28;20042;-60
2021/10/02 03:36:48;;;;;;;36.42;31.13;;;;;;;;;;5037358;28;20027;-59
2021/10/02 03:39:16;;;;;;;34.08;30.38;;;;;;;;;;4970430;28;20019;-60
2021/10/02 03:41:42;;;;;;;33.90;28.33;;;;;;;;;;4970662;28;20030;-59
2021/10/02 03:44:08;;;;;;;34.63;29.45;;;;;;;;;;5037218;28;20039;-59
2021/10/02 03:46:34;;;;;;;32.13;28.33;;;;;;;;;;5037444;28;20040;-58
2021/10/02 03:49:00;;;;;;;33.40;29.65;;;;;;;;;;5037171;28;20410;-58
2021/10/02 03:51:26;;;;;;;33.08;29.33;;;;;;;;;;4970409;28;20097;-59
2021/10/02 03:53:52;;;;;;;32.92;29.33;;;;;;;;;;5036905;28;20038;-60
2021/10/02 03:56:18;;;;;;;32.42;28.80;;;;;;;;;;5037082;28;20027;-59
2021/10/02 03:58:44;;;;;;;34.88;30.20;;;;;;;;;;4970213;28;20479;-60
2021/10/02 04:01:10;;;;;;;38.22;32.10;;;;;;;;;;4970503;28;20106;-61
2021/10/02 04:03:36;;;;;;;36.13;32.20;;;;;;;;;;5036997;28;20066;-60
2021/10/02 04:06:02;;;;;;;35.17;29.88;;;;;;;;;;4970303;28;20037;-59
2021/10/02 04:08:28;;;;;;;35.60;30.58;;;;;;;;;;4970113;28;20027;-59
2021/10/02 04:10:54;;;;;;;39.92;32.75;;;;;;;;;;5039343;28;20031;-59
2021/10/02 04:13:20;;;;;;;34.70;30.85;;;;;;;;;;4989595;28;20046;-61
2021/10/02 04:15:46;;;;;;;37.10;32.58;;;;;;;;;;5056576;28;20034;-60
2021/10/02 04:18:12;;;;;;;37.28;33.08;;;;;;;;;;4989159;28;20105;-60
2021/10/02 04:20:38;;;;;;;36.80;31.80;;;;;;;;;;4989544;28;20053;-64
2021/10/02 04:23:04;;;;;;;37.25;31.27;;;;;;;;;;4989375;28;20486;-60
2021/10/02 04:25:30;;;;;;;34.78;30.25;;;;;;;;;;5056885;28;20023;-58
2021/10/02 04:27:56;;;;;;;37.55;31.20;;;;;;;;;;4989544;28;20110;-59
2021/10/02 04:30:22;;;;;;;38.13;32.33;;;;;;;;;;4989310;28;20061;-59
2021/10/02 04:32:48;;;;;;;35.92;31.40;;;;;;;;;;5055427;28;20057;-60
2021/10/02 04:35:14;;;;;;;36.40;32.10;;;;;;;;;;5056506;28;20011;-59
2021/10/02 04:37:40;;;;;;;36.05;32.15;;;;;;;;;;5057009;28;20053;-59
2021/10/02 04:40:07;;;;;;;34.05;29.88;;;;;;;;;;5054792;28;20019;-59
2021/10/02 04:42:33;;;;;;;32.88;29.10;;;;;;;;;;5056558;28;20656;-58
2021/10/02 04:44:59;;;;;;;32.28;28.52;;;;;;;;;;4989579;28;20030;-61
2021/10/02 04:47:26;;;;;;;34.60;30.55;;;;;;;;;;5038623;28;20034;-59
2021/10/02 04:49:53;;;;;;;31.63;28.17;;;;;;;;;;4969521;28;20084;-59
2021/10/02 04:52:19;;;;;;;31.75;28.33;;;;;;;;;;4969512;28;20023;-57
2021/10/02 04:54:45;;;;;;;31.95;27.63;;;;;;;;;;5036313;28;20037;-56
2021/10/02 04:57:11;;;;;;;30.67;26.67;;;;;;;;;;4969982;28;20098;-59
2021/10/02 04:59:37;;;;;;;33.95;27.80;;;;;;;;;;4969123;28;20025;-58
2021/10/02 05:02:03;;;;;;;31.23;27.92;;;;;;;;;;4969547;28;20035;-58
2021/10/02 05:04:29;;;;;;;30.25;26.95;;;;;;;;;;5036228;28;20084;-59
2021/10/02 05:06:55;;;;;;;29.35;26.15;;;;;;;;;;5036606;28;20121;-58
2021/10/02 05:09:21;;;;;;;29.63;25.77;;;;;;;;;;5037593;28;20027;-61
2021/10/02 05:11:47;;;;;;;28.92;25.75;;;;;;;;;;4982344;28;20056;-59
2021/10/02 05:14:13;;;;;;;28.55;25.38;;;;;;;;;;5059622;28;20019;-60
2021/10/02 05:16:39;;;;;;;31.33;27.00;;;;;;;;;;4992171;28;20412;-59
2021/10/02 05:19:05;;;;;;;29.80;26.17;;;;;;;;;;5059283;28;20029;-58
2021/10/02 05:21:31;;;;;;;27.70;24.50;;;;;;;;;;4992159;28;20023;-60
2021/10/02 05:23:57;;;;;;;30.30;25.23;;;;;;;;;;5060515;28;20046;-59
2021/10/02 05:26:22;;;;;;;29.75;25.27;;;;;;;;;;5059673;28;20027;-59
2021/10/02 05:28:48;;;;;;;27.77;24.75;;;;;;;;;;4991924;28;20026;-61
2021/10/02 05:31:16;;;;;;;27.88;24.42;;;;;;;;;;5059433;28;20367;-59
2021/10/02 05:33:42;;;;;;;27.83;23.52;;;;;;;;;;4992060;28;20101;-59
2021/10/02 05:36:08;;;;;;;28.73;24.48;;;;;;;;;;4991908;28;20073;-57
2021/10/02 05:38:34;;;;;;;28.70;24.83;;;;;;;;;;5059231;28;20023;-60
2021/10/02 05:41:00;;;;;;;29.63;24.75;;;;;;;;;;4991841;28;20041;-59
2021/10/02 05:43:26;;;;;;;28.00;23.77;;;;;;;;;;4991938;28;20034;-58
2021/10/02 05:45:51;;;;;;;28.77;23.00;;;19.80;99.90;;;;;;4992042;28;20175;-65
2021/10/02 05:48:17;;;;;;;25.65;21.63;;;13.40;99.90;;;;;;5059523;28;20022;-62
2021/10/02 05:50:45;;;;;;;26.80;22.17;;;13.00;99.90;;;;;;5059424;28;20139;-62
2021/10/02 05:53:11;;;;;;;27.25;22.83;;;13.00;99.90;;;;;;4991914;28;20029;-62
2021/10/02 05:55:36;;;;;;;27.77;23.17;;;12.90;99.90;;;;;;5059295;28;20375;-61
2021/10/02 05:58:03;;;;;;;27.42;24.15;;;12.90;99.90;;;;;;4991653;28;20436;-62
2021/10/02 06:00:28;;;;;;;27.38;22.38;;;12.90;99.90;;;;;;4991566;28;20098;-58
2021/10/02 06:02:56;;;;;;;27.65;23.10;;;12.90;99.90;;;;;;5059286;28;20113;-61
2021/10/02 06:05:26;;;;;;;26.30;23.40;;;12.90;99.90;;;;;;4992068;28;20117;-61
2021/10/02 06:07:52;;;;;;;26.20;22.63;;;12.90;99.90;;;;;;4991668;28;20273;-61
2021/10/02 06:10:18;;;;;;;28.58;23.08;;;12.90;99.90;;;;;;4991573;28;20033;-61
2021/10/02 06:12:43;;;;;;;27.77;22.65;;;12.90;99.90;;;;;;4991352;28;20030;-62
2021/10/02 06:15:09;;;;;;;28.88;22.85;;;12.90;99.90;;;;;;5059015;28;20044;-61
2021/10/02 06:17:35;;;;;;;29.13;22.67;;;13.00;99.90;;;;;;5058650;28;20482;-61
2021/10/02 06:20:00;;;;;;;24.30;21.38;;;13.00;99.90;;;;;;5058100;28;20053;-62
2021/10/02 06:22:26;;;;;;;25.15;21.50;;;12.90;99.90;;;;;;5057929;28;20030;-62
2021/10/02 06:24:51;;;;;;;26.38;22.60;;;13.00;99.90;;;;;;4991302;28;20041;-58
2021/10/02 06:27:17;;;;;;;26.13;22.60;;;13.00;99.90;;;;;;5058589;28;20391;-58
2021/10/02 06:29:43;;;;;;;24.05;20.80;;;13.00;99.90;;;;;;5058481;28;20030;-59
2021/10/02 06:32:08;;;;;;;28.23;22.63;;;13.00;99.90;;;;;;5058569;28;20095;-60
2021/10/02 06:34:34;;;;;;;26.10;21.90;;;13.00;99.90;;;;;;4991479;28;20023;-59
2021/10/02 06:36:59;;;;;;;28.23;23.42;;;13.00;99.90;;;;;;5058604;28;20022;-62
2021/10/02 06:39:25;;;;;;;25.90;21.63;;;13.00;99.90;;;;;;4991044;28;20024;-60
2021/10/02 06:41:51;;;;;;;26.77;21.92;;;13.00;99.90;;;;;;5058065;28;20041;-59
2021/10/02 06:44:16;;;;;;;26.27;21.95;;;13.00;99.90;;;;;;5058490;28;20099;-58
2021/10/02 06:46:42;;;;;;;27.48;21.42;;;13.00;99.90;;;;;;5057795;28;20041;-60
2021/10/02 06:49:07;;;;;;;25.33;21.20;;;13.00;99.90;;;;;;5058098;28;20050;-60
2021/10/02 06:51:33;;;;;;;27.30;22.60;;;13.10;99.90;;;;;;4990645;28;20080;-60
2021/10/02 06:53:59;;;;;;;26.55;21.83;;;13.10;99.90;;;;;;4990943;28;20018;-59
2021/10/02 06:56:24;;;;;;;24.65;20.98;;;13.20;99.90;;;;;;4990816;28;20076;-59
2021/10/02 06:58:50;;;;;;;24.67;19.67;;;13.30;99.90;;;;;;5057434;28;20091;-60
2021/10/02 07:01:16;;;;;;;24.92;20.33;;;13.40;99.90;;;;;;5058038;28;20026;-59
2021/10/02 07:03:41;;;;;;;25.92;20.00;;;13.40;99.90;;;;;;4990724;28;20066;-59
2021/10/02 07:06:07;;;;;;;24.58;19.00;;;13.50;99.90;;;;;;5057743;28;20113;-57
2021/10/02 07:08:33;;;;;;;25.20;17.67;;;13.60;99.90;;;;;;5058270;28;20466;-60
2021/10/02 07:10:59;;;;;;;24.45;18.63;;;;;;;;;;5058389;28;20019;-60
2021/10/02 07:13:25;;;;;;;25.85;19.90;;;;;;;;;;5057619;28;20029;-61
2021/10/02 07:15:51;;;;;;;22.60;17.42;;;;;;;;;;4990389;28;20038;-60
2021/10/02 07:18:17;;;;;;;22.75;16.90;;;;;;;;;;5057498;28;20621;-59
2021/10/02 07:20:43;;;;;;;21.63;17.13;;;;;;;;;;5057812;28;20041;-59
2021/10/02 07:23:09;;;;;;;22.67;17.20;;;;;;;;;;5057390;28;20054;-59
2021/10/02 07:25:35;;;;;;;22.58;17.52;;;;;;;;;;4990279;28;20054;-59
2021/10/02 07:28:01;;;;;;;22.42;18.17;;;;;;;;;;4990352;28;20027;-59
2021/10/02 07:30:27;;;;;;;23.80;17.05;;;;;;;;;;4990261;28;20661;-59
2021/10/02 07:32:53;;;;;;;22.08;17.45;;;;;;;;;;4989849;28;20037;-58
2021/10/02 07:35:20;;;;;;;19.95;15.13;;;;;;;;;;4990203;28;20022;-59
2021/10/02 07:37:46;;;;;;;18.73;13.70;;;;;;;;;;5057328;28;20057;-59
2021/10/02 07:40:14;;;;;;;21.42;14.15;;;;;;;;;;5057057;28;20030;-58
2021/10/02 07:42:44;;;;;;;21.47;13.83;;;;;;;;;;4990228;28;20037;-64
2021/10/02 07:45:10;;;;;;;22.63;14.25;;;;;;;;;;5057181;28;20030;-64
2021/10/02 07:47:39;;;;;;;21.63;14.73;;;;;;;;;;5056769;28;20033;-64
2021/10/02 07:50:07;;;;;;;24.02;15.20;;;;;;;;;;4989530;28;20110;-65
2021/10/02 07:52:33;;;;;;;20.37;13.30;;;;;;;;;;5056798;28;20027;-64
2021/10/02 07:55:04;;;;;;;19.42;13.57;;;;;;;;;;4989962;28;20045;-64
2021/10/02 07:57:30;;;;;;;19.52;13.70;;;;;;;;;;5056943;28;20027;-64
2021/10/02 07:59:56;;;;;;;20.42;12.75;;;;;;;;;;5056530;28;20026;-64
2021/10/02 08:02:23;;;;;;;19.27;13.32;;;;;;;;;;4989593;28;20575;-64
2021/10/02 08:04:50;;;;;;;20.83;11.75;;;;;;;;;;5056472;28;20133;-63
2021/10/02 08:07:16;;;;;;;18.52;10.90;;;;;;;;;;5056878;28;20488;-64
2021/10/02 08:09:42;;;;;;;20.60;11.85;;;;;;;;;;5056341;28;20065;-65
2021/10/02 08:12:09;;;;;;;17.60;10.90;;;;;;;;;;4989443;28;20030;-63
2021/10/02 08:14:35;;;;;;;17.35;11.35;;;;;;;;;;4989627;28;20033;-64
2021/10/02 08:17:02;;;;;;;20.02;11.32;;;;;;;;;;4989744;28;20160;-64
2021/10/02 08:19:30;;;;;;;20.25;11.50;;;;;;;;;;4989544;28;20058;-64
2021/10/02 08:21:57;;;;;;;19.48;10.95;;;;;;;;;;4989729;28;20053;-64
2021/10/02 08:24:26;;;;;;;19.48;9.95;;;;;;;;;;5056635;28;20056;-63
2021/10/02 08:26:53;;;;;;;18.55;10.60;;;;;;;;;;4990071;28;20100;-65
2021/10/02 08:29:19;;;;;;;16.75;10.15;;;;;;;;;;4989459;28;20046;-65
2021/10/02 08:31:45;;;;;;;16.38;9.63;;;;;;;;;;5056807;28;20092;-65
2021/10/02 08:34:11;;;;;;;16.52;8.88;;;;;;;;;;5056541;28;20026;-64
2021/10/02 08:36:37;;;;;;;17.05;8.52;;;;;;;;;;4989686;28;20068;-64
2021/10/02 08:39:03;;;;;;;16.15;8.70;;;;;;;;;;5056470;28;20540;-63
2021/10/02 08:41:29;;;;;;;15.38;7.40;;;;;;;;;;4989651;28;20048;-65
2021/10/02 08:43:56;;;;;;;16.70;8.07;;;;;;;;;;5057331;28;20042;-66
2021/10/02 08:46:22;;;;;;;16.10;6.90;;;;;;;;;;4992807;28;20526;-65
2021/10/02 08:49:04;;;;;;;14.82;6.38;;;;;;;;;;4993029;28;20022;-63
2021/10/02 08:51:30;;;;;;;16.05;5.90;;;;;;;;;;5043937;28;20065;-65
2021/10/02 08:53:58;;;;;;;14.70;5.20;;;;;;;;;;4992679;28;20474;-65
2021/10/02 08:56:24;;;;;;;16.45;5.57;;;;;;;;;;4992661;28;20054;-64
2021/10/02 08:58:51;;;;;;;14.20;5.15;;;;;;;;;;4992548;28;20058;-63
2021/10/02 09:01:17;;;;;;;12.85;4.93;;;;;;;;;;4992925;28;20044;-65
2021/10/02 09:03:43;;;;;;;14.15;5.35;;;;;;;;;;5060249;28;20746;-64
2021/10/02 09:06:09;;;;;;;14.05;5.53;;;;;;;;;;4992071;28;20108;-65
2021/10/02 09:08:35;;;;;;;13.43;5.53;;;;;;;;;;4991944;28;20027;-64
2021/10/02 09:11:01;;;;;;;13.32;5.40;;;;;;;;;;4992166;28;20551;-65
2021/10/02 09:13:27;;;;;;;14.05;5.20;;;;;;;;;;5059802;28;20074;-65
2021/10/02 09:15:53;;;;;;;13.43;5.43;;;;;;;;;;4992487;28;20033;-63
2021/10/02 09:18:19;;;;;;;14.98;5.63;;;;;;;;;;5059290;28;20022;-64
2021/10/02 09:20:59;;;;;;;14.40;4.97;;;;;;;;;;4992376;28;20067;-65
2021/10/02 09:23:25;;;;;;;12.55;4.95;;;;;;;;;;4992137;28;20038;-63
2021/10/02 09:25:51;;;;;;;14.35;4.97;;;;;;;;;;5059463;28;20542;-65
2021/10/02 09:28:17;;;;;;;12.30;5.00;;;;;;;;;;4991853;28;20030;-65
2021/10/02 09:30:45;;;;;;;10.98;4.53;;;;;;;;;;5059664;28;20030;-65
2021/10/02 09:33:12;;;;;;;16.85;6.00;;;;;;;;;;4992049;28;20034;-65
2021/10/02 09:35:40;;;;;;;11.63;4.30;;;;;;;;;;4992144;28;20069;-65
2021/10/02 09:38:10;;;;;;;13.55;4.20;;;;;;;;;;4991806;28;20026;-64
2021/10/02 09:40:37;;;;;;;11.50;4.22;;;;;;;;;;4991772;28;20105;-65
2021/10/02 09:43:04;;;;;;;11.07;4.50;;;;;;;;;;5058946;28;20471;-62
2021/10/02 09:45:30;;;;;;;14.48;4.82;;;;;;;;;;4991796;28;20031;-65
2021/10/02 09:48:00;;;;;;;14.82;5.50;;;;;;;;;;4991779;28;20030;-65
2021/10/02 09:50:27;;;;;;;13.07;5.03;;;;;;;;;;4991552;28;20048;-63
2021/10/02 09:52:57;;;;;;;12.85;5.05;;;;;;;;;;5058846;28;20072;-65
2021/10/02 09:55:27;;;;;;;13.98;5.32;;;;;;;;;;4991543;28;20376;-65
2021/10/02 09:57:54;;;;;;;11.80;4.53;;;;;;;;;;4991573;28;20026;-66
2021/10/02 10:00:24;;;;;;;15.05;4.75;;;;;;;;;;4991801;28;20023;-64
2021/10/02 10:02:50;;;;;;;11.48;4.43;;;;;;;;;;5058629;28;20023;-65
2021/10/02 10:05:16;;;;;;;13.18;4.70;;;;;;;;;;5059216;28;20104;-65
2021/10/02 10:07:53;;;;;;;11.40;4.32;;;;;;;;;;4991576;28;20030;-64
2021/10/02 10:10:19;;;;;;;14.00;4.80;;;;;;;;;;4991285;28;20026;-65
2021/10/02 10:12:45;;;;;;;12.45;4.35;;;;;;;;;;4991239;28;20408;-64
2021/10/02 10:15:34;;;;;;;12.80;4.88;;;;;;;;;;4991778;28;20030;-65
2021/10/02 10:18:00;;;;;;;12.10;5.00;;;;;;;;;;5058782;28;20026;-64
2021/10/02 10:20:34;;;;;;;14.13;5.30;;;;;;;;;;4990797;28;20101;-65
2021/10/02 10:23:00;;;;;;;11.00;4.78;;;;;;;;;;5058041;28;20031;-65
2021/10/02 10:25:26;;;;;;;11.90;5.30;;;;;;;;;;4990983;28;20101;-64
2021/10/02 10:27:52;;;;;;;12.07;4.90;;;;;;;;;;4991045;28;20095;-65
2021/10/02 10:30:23;;;;;;;16.10;6.15;;;13.60;99.90;;;;;;4990584;28;20026;-65
2021/10/02 10:32:57;;;;;;;12.45;5.10;;;16.70;99.90;;;;;;5058154;28;20026;-64
2021/10/02 10:35:26;;;;;;;13.60;5.25;;;16.70;99.90;;;;;;4991114;28;20080;-64
2021/10/02 10:37:51;;;;;;;12.07;4.90;;;16.60;99.90;;;;;;4991151;28;20390;-64
2021/10/02 10:40:17;;;;;;;12.00;4.97;;;16.90;99.90;;;;;;4990554;28;20026;-65
2021/10/02 10:42:43;;;;;;;12.57;5.28;;;17.00;99.90;;;;;;4990730;28;20093;-65
2021/10/02 10:45:09;;;;;;;15.80;5.55;;;16.90;99.90;;;;;;4990723;28;20134;-63
2021/10/02 10:47:36;;;;;;;12.70;5.35;;;16.90;99.90;;;;;;5057887;28;20042;-65
2021/10/02 10:50:01;;;;;;;13.95;5.60;;;17.00;99.90;;;;;;5057941;28;20030;-64
2021/10/02 10:52:36;;;;;;;14.75;5.80;;;17.10;99.90;;;;;;4990550;28;20045;-64
2021/10/02 10:55:01;;;;;;;14.13;6.03;;;17.40;99.90;;;;;;5057972;28;20023;-64
2021/10/02 10:57:38;;;;;;;13.52;5.82;;;17.30;99.90;;;;;;5057547;28;20076;-64
2021/10/02 11:00:08;;;;;;;14.00;5.78;;;17.20;99.90;;;;;;4990750;28;20027;-64
2021/10/02 11:02:45;;;;;;;16.40;6.45;;;;;;;;;;4990150;28;20030;-64
2021/10/02 11:05:30;;;;;;;12.63;5.68;;;;;;;;;;4990494;28;20446;-63
2021/10/02 11:07:56;;;;;;;15.25;6.25;;;;;;;;;;4989433;28;20150;-64
2021/10/02 11:10:54;;;;;;;14.20;6.90;;;;;;;;;;5057884;28;20207;-63
2021/10/02 11:13:29;;;;;;;14.45;6.65;;;;;;;;;;5021684;28;20043;-63
2021/10/02 11:15:56;;;;;;;14.90;6.78;;;;;;;;;;4971251;28;20027;-63
2021/10/02 11:18:41;;;;;;;14.73;6.55;;;;;;;;;;4970980;28;20050;-63
2021/10/02 11:21:07;;;;;;;13.35;6.20;;;;;;;;;;5037691;28;20027;-64
2021/10/02 11:23:42;;;;;;;13.63;6.10;;;;;;;;;;5053043;23;20042;-66
2021/10/02 11:26:17;;;;;;;13.30;6.32;;;;;;;;;;4988325;28;20030;-67
2021/10/02 11:28:44;;;;;;;13.15;6.20;;;;;;;;;;4988555;28;20026;-67
2021/10/02 11:31:14;;;;;;;15.32;6.70;;;;;;;;;;4971521;28;20486;-66
2021/10/02 11:33:50;;;;;;;15.02;5.80;;;;;;;;;;4955927;28;20050;-67
2021/10/02 11:36:31;;;;;;;13.52;5.95;;;;;;;;;;4971508;28;20030;-67
2021/10/02 11:39:10;;;;;;;13.48;5.95;;;;;;;;;;4989185;28;20101;-67
2021/10/02 11:41:37;;;;;;;12.25;5.63;;;;;;;;;;4972590;28;20026;-68
2021/10/02 11:44:03;;;;;;;14.35;5.80;;;;;;;;;;4989437;28;20046;-67
2021/10/02 11:46:29;;;;;;;11.82;5.32;;;;;;;;;;4971303;28;20033;-67
2021/10/02 11:49:11;;;;;;;12.65;6.05;;;;;;;;;;4971379;28;20030;-69
2021/10/02 11:51:37;;;;;;;15.05;6.57;;;;;;;;;;4971024;28;20029;-67
2021/10/02 11:54:09;;;;;;;13.68;6.50;;;;;;;;;;4971347;28;20023;-67
2021/10/02 11:56:36;;;;;;;13.35;6.15;;;;;;;;;;4971197;28;20816;-67
2021/10/02 11:59:03;;;;;;;13.60;6.60;;;;;;;;;;4988313;28;20030;-67
2021/10/02 12:01:31;;;;;;;12.40;6.10;;;;;;;;;;4970749;28;20450;-67
2021/10/02 12:04:08;;;;;;;12.10;5.60;;;;;;;;;;4970854;28;20054;-66
2021/10/02 12:06:35;;;;;;;13.85;6.47;;;;;;;;;;4971176;28;20035;-67
2021/10/02 12:09:02;;;;;;;15.60;6.40;;;;;;;;;;4989074;28;20552;-68
2021/10/02 12:11:29;;;;;;;12.27;5.97;;;;;;;;;;4988454;28;20054;-67
2021/10/02 12:13:55;;;;;;;12.55;6.20;;;;;;;;;;4988198;28;20072;-68
2021/10/02 12:16:26;;;;;;;12.35;5.80;;;;;;;;;;4988722;28;20109;-67
2021/10/02 12:19:06;;;;;;;12.43;6.20;;;;;;;;;;4988644;28;20385;-67
2021/10/02 12:21:34;;;;;;;12.98;5.68;;;;;;;;;;4990636;28;20110;-67
2021/10/02 12:24:17;;;;;;;13.43;6.03;;;;;;;;;;4973864;28;20063;-68
2021/10/02 12:26:57;;;;;;;12.73;5.75;;;;;;;;;;4974365;28;20142;-66
2021/10/02 12:29:28;;;;;;;14.45;5.90;;;;;;;;;;4991293;28;20469;-67
2021/10/02 12:31:54;;;;;;;14.25;5.80;;;;;;;;;;4991381;28;20045;-67
2021/10/02 12:34:22;;;;;;;14.60;5.53;;;;;;;;;;4992189;28;20018;-67
2021/10/02 12:36:50;;;;;;;12.75;5.60;;;;;;;;;;4991587;28;20032;-67
2021/10/02 12:39:17;;;;;;;12.88;5.63;;;;;;;;;;4991314;28;20541;-67
2021/10/02 12:41:44;;;;;;;11.90;5.60;;;;;;;;;;4991575;28;20042;-67
2021/10/02 12:44:40;;;;;;;12.77;6.00;;;;;;;;;;4973847;28;20462;-67
2021/10/02 12:47:08;;;;;;;13.35;5.60;;;;;;;;;;4978694;28;20061;-67
2021/10/02 12:49:38;;;;;;;14.25;5.95;;;;;;;;;;4991271;28;20031;-67
2021/10/02 12:52:05;;;;;;;13.32;5.50;;;;;;;;;;4992337;28;20061;-66
2021/10/02 12:54:31;;;;;;;14.27;5.80;;;;;;;;;;4991483;28;20064;-67
2021/10/02 12:56:58;;;;;;;11.85;5.07;;;;;;;;;;4973474;28;20497;-67
2021/10/02 12:59:24;;;;;;;13.10;5.55;;;;;;;;;;4958188;28;20035;-67
2021/10/02 13:01:51;;;;;;;13.20;5.82;;;;;;;;;;4991193;28;20106;-66
2021/10/02 13:04:18;;;;;;;12.65;5.60;;;;;;;;;;4973564;28;20049;-67
2021/10/02 13:06:48;;;;;;;14.23;5.43;;;;;;;;;;4991157;28;20069;-66
2021/10/02 13:09:14;;;;;;;11.45;5.38;;;;;;;;;;4990897;28;20026;-67
2021/10/02 13:11:40;;;;;;;12.95;5.95;;;;;;;;;;4990985;28;20039;-67
2021/10/02 13:14:06;;;;;;;13.70;5.80;;;;;;;;;;4974117;28;20026;-67
2021/10/02 13:16:32;;;;;;;13.43;5.72;;;;;;;;;;4973595;28;20121;-67
2021/10/02 13:18:58;;;;;;;14.25;5.70;;;;;;;;;;4973269;28;20018;-66
2021/10/02 13:21:24;;;;;;;12.93;5.65;;;;;;;;;;4991000;28;20113;-67
2021/10/02 13:23:50;;;;;;;13.88;5.90;;;;;;;;;;4973577;28;20051;-67
2021/10/02 13:26:20;;;;;;;13.10;6.03;;;;;;;;;;4973742;28;20073;-67
2021/10/02 13:28:46;;;;;;;13.18;5.68;;;;;;;;;;4972930;28;20450;-66
2021/10/02 13:31:15;;;;;;;12.45;5.53;;;;;;;;;;4990481;28;20028;-67
2021/10/02 13:33:45;;;;;;;13.15;5.75;;;;;;;;;;4990808;28;20023;-66
2021/10/02 13:36:27;;;;;;;13.52;6.30;;;;;;;;;;4969649;28;20029;-66
2021/10/02 13:38:53;;;;;;;13.02;6.18;;;;;;;;;;4981262;28;20477;-66
2021/10/02 13:41:19;;;;;;;13.48;6.63;;;;;;;;;;4962904;28;20049;-66
2021/10/02 13:43:56;;;;;;;14.40;6.82;;;;;;;;;;4979568;28;20545;-66
2021/10/02 13:46:30;;;;;;;16.08;6.60;;;;;;;;;;4978454;28;20026;-65
2021/10/02 13:48:57;;;;;;;13.70;6.63;;;;;;;;;;4979864;28;20033;-66
2021/10/02 13:51:22;;;;;;;15.38;7.20;;;17.40;99.90;;;;;;4978556;28;20394;-66
2021/10/02 13:53:48;;;;;;;14.82;6.57;;;18.70;99.90;;;;;;4964159;28;20033;-66
2021/10/02 13:56:14;;;;;;;15.13;6.45;;;18.40;99.90;;;;;;4979540;28;20087;-66
2021/10/02 13:58:39;;;;;;;15.52;6.15;;;18.50;99.90;;;;;;4962339;28;20026;-66
2021/10/02 14:01:05;;;;;;;16.58;6.70;;;18.50;99.90;;;;;;4976054;28;20027;-66
2021/10/02 14:03:31;;;;;;;14.02;6.35;;;;;;;;;;4970784;28;20094;-66
2021/10/02 14:05:57;;;;;;;13.38;6.40;;;;;;;;;;4962851;28;20038;-66
2021/10/02 14:08:23;;;;;;;13.48;6.63;;;;;;;;;;4975762;28;20037;-66
2021/10/02 14:10:49;;;;;;;14.38;6.82;;;;;;;;;;4973033;28;20033;-66
2021/10/02 14:13:18;;;;;;;15.07;6.50;;;18.80;99.90;;;;;;4990236;28;20117;-66
2021/10/02 14:15:44;;;;;;;13.93;6.07;;;;;;;;;;4972995;28;20033;-66
2021/10/02 14:18:10;;;;;;;13.25;6.40;;;;;;;;;;4972491;28;20083;-65
2021/10/02 14:20:36;;;;;;;13.50;6.22;;;;;;;;;;4990248;28;20023;-66
2021/10/02 14:23:02;;;;;;;14.38;6.28;;;;;;;;;;4972756;28;20075;-66
2021/10/02 14:25:28;;;;;;;13.18;6.03;;;;;;;;;;4972558;28;20034;-67
2021/10/02 14:27:54;;;;;;;13.13;5.90;;;;;;;;;;4972660;28;20026;-66
2021/10/02 14:30:20;;;;;;;12.77;6.10;;;;;;;;;;4989502;28;20040;-68
2021/10/02 14:32:47;;;;;;;17.38;6.15;;;;;;;;;;4972365;28;20058;-66
2021/10/02 14:35:16;;;;;;;11.95;5.60;;;;;;;;;;4972250;28;20027;-67
2021/10/02 14:37:42;;;;;;;13.32;6.10;;;;;;;;;;4972041;28;20398;-66
2021/10/02 14:40:10;;;;;;;14.65;6.07;;;;;;;;;;4989639;28;20022;-66
2021/10/02 14:42:36;;;;;;;13.30;5.80;;;;;;;;;;4971260;28;20117;-66
2021/10/02 14:45:03;;;;;;;13.20;6.00;;;;;;;;;;4989664;28;20095;-67
2021/10/02 14:47:29;;;;;;;12.70;6.15;;;;;;;;;;4989885;28;20038;-66
2021/10/02 14:49:55;;;;;;;13.27;6.07;;;;;;;;;;4988763;28;20026;-66
2021/10/02 14:52:22;;;;;;;13.38;6.38;;;;;;;;;;4989152;28;20057;-66
2021/10/02 14:54:48;;;;;;;13.45;6.35;;;;;;;;;;4971928;28;20152;-66
2021/10/02 14:57:14;;;;;;;12.95;5.90;;;;;;;;;;4989414;28;20023;-66
2021/10/02 14:59:42;;;;;;;13.00;5.90;;;;;;;;;;4989223;28;20027;-66
2021/10/02 15:02:09;;;;;;;12.70;6.28;;;;;;;;;;4989593;28;20055;-67